Time;durP1;ratioP1;P1;durP2;ratioP2;P2;SDS_P1;SDS_P2;PMS_P1;PMS_P2;Temp;Humidity;BMP_temperature;BMP_pressure;BME280_temperature;BME280_humidity;BME280_pressure;Samples;Min_cycle;Max_cycle;Signal;HPM_P1;HPM_P2
2021/08/09 00:02:06;;;;;;;4.15;2.80;;;;;;;19.57;67.10;100254.98;1750496;80;20965;-76
2021/08/09 00:04:34;;;;;;;4.45;2.85;;;;;;;19.55;67.14;100258.84;1757386;80;21104;-76
2021/08/09 00:07:01;;;;;;;7.50;2.87;;;;;;;19.53;67.15;100266.23;1709149;82;21019;-75
2021/08/09 00:09:29;;;;;;;4.53;2.55;;;;;;;19.49;67.21;100255.53;1702404;82;21845;-75
2021/08/09 00:11:55;;;;;;;9.35;2.80;;;;;;;19.45;67.24;100262.61;1709325;83;20948;-75
2021/08/09 00:14:23;;;;;;;4.78;2.80;;;;;;;19.40;67.30;100250.28;1704121;83;20984;-75
2021/08/09 00:16:50;;;;;;;4.12;2.60;;;;;;;19.36;67.35;100246.80;1727843;83;21495;-75
2021/08/09 00:19:18;;;;;;;3.58;2.80;;;;;;;19.33;67.52;100242.64;1730204;83;21428;-75
2021/08/09 00:21:46;;;;;;;4.92;2.72;;;;;;;19.33;67.58;100240.47;1683255;83;20989;-75
2021/08/09 00:24:12;;;;;;;3.72;2.90;;;;;;;19.32;67.60;100233.45;1700988;83;21016;-75
2021/08/09 00:26:38;;;;;;;4.80;2.90;;;;;;;19.32;67.67;100237.47;1704700;83;20961;-75
2021/08/09 00:29:06;;;;;;;4.58;2.70;;;;;;;19.33;67.69;100225.23;1702072;83;21043;-76
2021/08/09 00:31:34;;;;;;;3.60;2.77;;;;;;;19.33;67.67;100237.80;1723064;83;21557;-75
2021/08/09 00:34:03;;;;;;;5.78;2.92;;;;;;;19.32;67.65;100238.81;1699594;83;21091;-75
2021/08/09 00:36:29;;;;;;;3.92;2.70;;;;;;;19.32;67.66;100231.61;1702946;83;20977;-75
2021/08/09 00:38:56;;;;;;;4.58;2.87;;;;;;;19.32;67.63;100226.25;1715066;83;21445;-75
2021/08/09 00:41:23;;;;;;;3.47;2.60;;;;;;;19.32;67.57;100236.13;1702360;83;21443;-75
2021/08/09 00:43:49;;;;;;;3.90;2.65;;;;;;;19.24;67.70;100237.55;1702857;83;21475;-76
2021/08/09 00:46:18;;;;;;;4.05;2.70;;;;;;;19.19;67.76;100232.71;1687991;84;21865;-75
2021/08/09 00:48:46;;;;;;;4.78;2.87;;;;;;;19.16;67.83;100232.58;1686922;83;21431;-75
2021/08/09 00:51:14;;;;;;;4.45;2.70;;;;;;;19.15;67.87;100232.77;1687175;85;21425;-76
2021/08/09 00:53:42;;;;;;;4.65;2.72;;;;;;;19.15;67.87;100235.44;1687924;85;21002;-75
2021/08/09 00:56:09;;;;;;;4.92;2.90;;;;;;;19.15;67.86;100232.25;1687135;85;21030;-75
2021/08/09 00:58:36;;;;;;;6.28;3.00;;;;;;;19.13;67.90;100233.45;1687299;85;22660;-75
2021/08/09 01:01:04;;;;;;;4.60;2.98;;;;;;;19.11;67.90;100227.45;1686871;85;21098;-75
2021/08/09 01:03:32;;;;;;;4.25;2.72;;;;;;;19.09;67.99;100232.13;1687524;84;21107;-75
2021/08/09 01:05:59;;;;;;;3.12;2.50;;;;;;;19.06;68.06;100225.81;1713946;83;20961;-75
2021/08/09 01:09:04;;;;;;;3.95;2.77;;;;;;;19.08;68.10;100223.78;1691071;83;21401;-75
2021/08/09 01:11:37;;;;;;;4.72;3.02;;;;;;;19.06;68.14;100219.12;1694961;83;21853;-75
2021/08/09 01:14:46;;;;;;;4.12;2.92;;;;;;;19.02;68.21;100211.97;1676194;85;21021;-75
2021/08/09 01:17:14;;;;;;;4.37;3.00;;;;;;;18.98;68.31;100209.81;1694213;83;21032;-75
2021/08/09 01:19:58;;;;;;;5.03;2.83;;;;;;;18.92;68.42;100204.69;1683662;85;21493;-75
2021/08/09 01:23:08;;;;;;;5.67;2.65;;;;;;;18.90;68.43;100209.87;1664250;85;21033;-75
2021/08/09 01:25:49;;;;;;;4.70;2.92;;;;;;;18.93;68.41;100209.54;1682788;85;21875;-75
2021/08/09 01:28:16;;;;;;;4.37;3.20;;;;;;;18.95;68.36;100207.51;1655895;85;21014;-75
2021/08/09 01:30:43;;;;;;;3.98;3.02;;;;;;;18.95;68.33;100204.32;1674215;84;21002;-75
2021/08/09 01:33:10;;;;;;;5.60;2.80;;;;;;;18.94;68.33;100213.87;1682564;84;21055;-75
2021/08/09 01:35:39;;;;;;;3.60;2.70;;;;;;;18.92;68.34;100203.86;1686144;84;21004;-75
2021/08/09 01:38:06;;;;;;;4.60;2.90;;;;;;;18.88;68.37;100205.54;1667426;84;22266;-75
2021/08/09 01:40:34;;;;;;;5.17;2.90;;;;;;;18.90;68.41;100208.54;1673324;83;21087;-75
2021/08/09 01:43:00;;;;;;;3.95;3.10;;;;;;;18.88;68.44;100200.70;1692362;83;20969;-75
2021/08/09 01:45:27;;;;;;;7.35;2.83;;;;;;;18.88;68.39;100202.03;1708027;82;21571;-75
2021/08/09 01:47:55;;;;;;;3.55;2.65;;;;;;;18.90;68.42;100205.86;1713887;83;21013;-75
2021/08/09 01:50:23;;;;;;;3.35;2.60;;;;;;;18.85;68.43;100203.23;1712162;83;22683;-75
2021/08/09 01:52:50;;;;;;;7.28;2.80;;;;;;;18.84;68.51;100212.78;1663223;83;21116;-75
2021/08/09 01:55:18;;;;;;;4.95;2.67;;;;;;;18.79;68.52;100215.98;1709550;83;21075;-75
2021/08/09 01:57:52;;;;;;;4.12;2.47;;;;;;;18.75;68.57;100209.84;1713956;83;21003;-75
2021/08/09 02:00:20;;;;;;;6.55;2.50;;;;;;;18.69;68.77;100212.70;1765317;80;21035;-75
2021/08/09 02:02:52;;;;;;;3.50;2.65;;;;;;;18.66;68.76;100213.08;1752534;80;21847;-75
2021/08/09 02:05:18;;;;;;;4.80;2.77;;;;;;;18.60;68.81;100206.55;1743276;80;20963;-75
2021/08/09 02:07:56;;;;;;;3.20;2.50;;;;;;;18.55;68.90;100214.80;1736815;82;21011;-75
2021/08/09 02:10:26;;;;;;;4.17;2.65;;;;;;;18.47;69.06;100213.51;1749636;80;21038;-75
2021/08/09 02:13:07;;;;;;;4.30;2.98;;;;;;;18.44;69.31;100217.88;1746685;80;21016;-75
2021/08/09 02:16:02;;;;;;;6.78;2.80;;;;;;;18.43;69.44;100214.38;1768895;80;21775;-75
2021/08/09 02:18:39;;;;;;;3.65;2.87;;;;;;;18.45;69.57;100213.69;1760311;80;21518;-75
2021/08/09 02:21:09;;;;;;;3.47;2.60;;;;;;;18.43;69.59;100214.84;1751467;80;20945;-75
2021/08/09 02:23:50;;;;;;;5.50;2.67;;;;;;;18.34;69.59;100213.27;1754876;80;21361;-75
2021/08/09 02:26:38;;;;;;;3.58;2.85;;;;;;;18.28;69.63;100216.13;1779848;80;20957;-75
2021/08/09 02:29:14;;;;;;;4.35;2.80;;;;;;;18.23;69.94;100217.97;1737130;80;22672;-75
2021/08/09 02:31:43;;;;;;;4.50;3.10;;;;;;;18.23;70.01;100211.79;1708049;82;21441;-75
2021/08/09 02:34:10;;;;;;;5.05;2.90;;;;;;;18.22;70.16;100210.95;1757305;80;21417;-75
2021/08/09 02:36:37;;;;;;;6.65;2.80;;;;;;;18.21;70.16;100211.97;1753755;80;20966;-75
2021/08/09 02:39:04;;;;;;;3.80;3.00;;;;;;;18.20;70.34;100212.98;1747296;82;21710;-75
2021/08/09 02:41:30;;;;;;;5.08;3.12;;;;;;;18.21;70.54;100211.97;1746700;80;22841;-75
2021/08/09 02:43:56;;;;;;;4.20;3.02;;;;;;;18.24;70.69;100207.63;1766796;80;21367;-75
2021/08/09 02:46:23;;;;;;;5.47;3.30;;;;;;;18.28;70.69;100210.27;1744993;80;21417;-75
2021/08/09 02:48:50;;;;;;;3.87;3.02;;;;;;;18.32;70.65;100217.42;1742749;81;21171;-75
2021/08/09 02:51:18;;;;;;;7.72;3.37;;;;;;;18.33;70.56;100212.40;1749939;81;20868;-75
2021/08/09 02:53:47;;;;;;;6.60;2.98;;;;;;;18.31;70.47;100216.59;1720545;82;21876;-75
2021/08/09 02:56:14;;;;;;;4.08;3.08;;;;;;;18.28;70.42;100213.45;1751268;81;21059;-75
2021/08/09 02:58:40;;;;;;;5.08;2.98;;;;;;;18.23;70.47;100220.64;1725260;81;21040;-75
2021/08/09 03:01:07;;;;;;;7.37;3.25;;;;;;;18.21;70.50;100225.34;1764193;80;20962;-74
2021/08/09 03:03:35;;;;;;;4.72;3.02;;;;;;;18.17;70.52;100221.36;1736313;82;20999;-74
2021/08/09 03:06:02;;;;;;;4.28;2.62;;;;;;;18.14;70.59;100221.69;1756898;81;21638;-75
2021/08/09 03:08:30;;;;;;;3.90;3.05;;;;;;;18.10;70.59;100227.06;1703221;81;21476;-74
2021/08/09 03:10:57;;;;;;;5.25;2.90;;;;;;;18.03;70.70;100222.08;1713237;82;20972;-74
2021/08/09 03:13:24;;;;;;;5.50;2.90;;;;;;;17.99;70.85;100220.77;1745840;81;21459;-75
2021/08/09 03:15:52;;;;;;;6.85;2.90;;;;;;;17.99;71.01;100227.45;1738157;82;21056;-76
2021/08/09 03:18:20;;;;;;;4.72;3.05;;;;;;;17.96;71.06;100224.63;1695455;84;21828;-75
2021/08/09 03:20:47;;;;;;;4.90;2.90;;;;;;;17.95;71.41;100226.11;1694735;84;21476;-75
2021/08/09 03:23:14;;;;;;;4.50;3.05;;;;;;;17.94;71.67;100226.62;1695039;84;21020;-75
2021/08/09 03:25:42;;;;;;;5.62;2.92;;;;;;;18.03;71.92;100220.73;1665646;86;21476;-75
2021/08/09 03:28:09;;;;;;;6.00;3.00;;;;;;;18.12;72.02;100217.53;1694585;84;21386;-75
2021/08/09 03:30:36;;;;;;;4.95;3.05;;;;;;;18.21;72.05;100212.47;1692953;84;22492;-75
2021/08/09 03:33:03;;;;;;;4.15;2.75;;;;;;;18.31;72.08;100209.08;1689453;84;21556;-75
2021/08/09 03:35:30;;;;;;;5.08;3.20;;;;;;;18.40;72.00;100204.01;1694347;84;21096;-75
2021/08/09 03:37:57;;;;;;;6.00;3.33;;;;;;;18.48;71.88;100201.29;1671368;84;21395;-75
2021/08/09 03:40:23;;;;;;;3.83;3.00;;;;;;;18.55;71.86;100200.09;1696052;84;21446;-76
2021/08/09 03:42:50;;;;;;;4.15;3.05;;;;;;;18.61;71.71;100199.36;1694375;84;22647;-75
2021/08/09 03:45:16;;;;;;;6.40;3.10;;;;;;;18.69;71.57;100205.19;1665716;86;21368;-74
2021/08/09 03:47:43;;;;;;;4.47;3.10;;;;;;;18.72;71.47;100201.67;1717909;82;21475;-75
2021/08/09 03:50:10;;;;;;;4.50;2.83;;;;;;;18.76;71.36;100202.97;1700888;82;20966;-76
2021/08/09 03:52:50;;;;;;;6.03;3.10;;;;;;;18.83;71.27;100204.43;1684517;85;21025;-76
2021/08/09 03:55:18;;;;;;;6.70;3.08;;;;;;;18.91;71.16;100196.81;1693361;84;22782;-77
2021/08/09 03:57:45;;;;;;;4.47;2.83;;;;;;;18.96;71.03;100206.49;1719855;82;21427;-74
2021/08/09 04:00:12;;;;;;;4.60;2.95;;;;;;;19.01;70.88;100202.27;1731719;82;21518;-73
2021/08/09 04:02:43;;;;;;;5.72;3.20;;;;;;;19.11;70.68;100203.36;1736231;82;21005;-73
2021/08/09 04:05:13;;;;;;;5.97;2.92;;;;;;;19.21;70.58;100200.42;1723474;82;21443;-76
2021/08/09 04:07:39;;;;;;;5.72;3.08;;;;;;;19.28;70.44;100194.64;1724527;82;21808;-76
2021/08/09 04:10:08;;;;;;;4.10;2.90;;;;;;;19.34;70.35;100199.28;1736655;82;21405;-76
2021/08/09 04:12:35;;;;;;;6.97;2.83;;;;;;;19.41;70.28;100201.56;1729182;82;21056;-77
2021/08/09 04:15:06;;;;;;;4.12;2.62;;;;;;;19.48;70.24;100212.35;1719571;83;20945;-78
2021/08/09 04:17:34;;;;;;;4.90;2.83;;;;;;;19.53;70.24;100204.61;1723951;82;21439;-72
2021/08/09 04:20:01;;;;;;;3.47;2.85;;;;;;;19.58;70.15;100204.91;1724976;82;21511;-75
2021/08/09 04:22:29;;;;;;;5.08;3.10;;;;;;;19.71;69.91;100199.75;1730514;82;21397;-74
2021/08/09 04:24:56;;;;;;;4.47;2.80;;;;;;;19.81;69.70;100207.00;1723709;82;21429;-74
2021/08/09 04:27:22;;;;;;;4.00;2.87;;;;;;;19.90;69.53;100215.27;1727959;82;21503;-74
2021/08/09 04:29:49;;;;;;;4.53;3.10;;;;;;;20.00;69.29;100208.28;1718522;83;20969;-74
2021/08/09 04:32:17;;;;;;;7.42;2.90;;;;;;;20.11;69.09;100200.27;1703027;83;21820;-74
2021/08/09 04:34:45;;;;;;;5.30;3.25;;;;;;;20.20;68.97;100197.80;1674929;83;21031;-76
2021/08/09 04:37:13;;;;;;;5.17;2.80;;;;;;;20.28;68.87;100201.72;1724162;82;21052;-74
2021/08/09 04:39:41;;;;;;;4.87;2.85;;;;;;;20.36;68.74;100203.42;1692401;83;21059;-73
2021/08/09 04:42:09;;;;;;;4.25;3.12;;;;;;;20.46;68.61;100206.66;1692989;83;21007;-72
2021/08/09 04:44:35;;;;;;;9.33;3.20;;;;;;;20.56;68.31;100210.73;1690107;83;21808;-72
2021/08/09 04:47:02;;;;;;;6.78;3.27;;;;;;;20.66;68.10;100202.36;1689220;83;21464;-73
2021/08/09 04:49:30;;;;;;;6.58;3.42;;;;;;;20.74;67.85;100202.72;1683902;83;21376;-74
2021/08/09 04:51:57;;;;;;;5.72;3.45;;;;;;;20.83;67.49;100202.40;1680609;83;21005;-74
2021/08/09 04:54:23;;;;;;;9.23;3.70;;;;;;;20.92;67.37;100203.10;1719466;82;21060;-74
2021/08/09 04:56:50;;;;;;;5.05;3.27;;;;;;;21.01;67.15;100203.80;1749216;82;21827;-74
2021/08/09 04:59:17;;;;;;;6.17;3.60;;;;;;;21.07;67.04;100201.18;1742984;82;20962;-74
2021/08/09 05:01:45;;;;;;;4.97;3.33;;;;;;;21.16;66.86;100207.25;1751825;80;21404;-74
2021/08/09 05:04:13;;;;;;;6.20;3.27;;;;;;;21.21;66.64;100214.19;1743478;80;21682;-74
2021/08/09 05:06:41;;;;;;;5.60;3.37;;;;;;;21.24;66.47;100215.16;1760436;80;21416;-74
2021/08/09 05:09:08;;;;;;;4.15;3.10;;;;;;;21.31;66.31;100217.91;1761312;80;22202;-74
2021/08/09 05:11:34;;;;;;;6.60;3.58;;;;;;;21.33;66.16;100221.26;1748163;80;21063;-75
2021/08/09 05:14:03;;;;;;;6.58;3.83;;;;;;;21.38;66.23;100222.31;1758194;80;21064;-74
2021/08/09 05:16:38;;;;;;;6.22;3.52;;;;;;;21.45;65.79;100219.69;1748317;80;21000;-73
2021/08/09 05:19:06;;;;;;;5.95;3.83;;;;;;;21.48;65.44;100213.91;1742887;82;21052;-73
2021/08/09 05:21:31;;;;;;;7.72;3.60;;;;;;;21.54;65.21;100220.36;1746769;80;21945;-73
2021/08/09 05:24:04;;;;;;;5.50;3.55;;;;;;;21.59;65.12;100220.59;1760260;80;20965;-74
2021/08/09 05:26:31;;;;;;;6.85;3.55;;;;;;;21.64;64.86;100216.30;1746293;80;21040;-74
2021/08/09 05:28:58;;;;;;;5.85;3.65;;;;;;;21.72;65.00;100219.34;1753308;80;21038;-74
2021/08/09 05:31:26;;;;;;;5.80;3.67;;;;;;;21.82;64.91;100214.44;1746090;82;21278;-74
2021/08/09 05:33:55;;;;;;;4.37;3.60;;;;;;;21.90;64.75;100206.17;1757725;80;22664;-75
2021/08/09 05:36:22;;;;;;;7.00;3.70;;;;;;;21.99;64.66;100206.33;1703585;83;21050;-74
2021/08/09 05:38:50;;;;;;;5.28;3.72;;;;;;;22.11;64.51;100217.40;1737840;82;20937;-74
2021/08/09 05:41:17;;;;;;;6.75;3.77;;;;;;;22.18;64.19;100209.33;1743785;82;20962;-74
2021/08/09 05:43:44;;;;;;;11.80;3.83;;;;;;;22.23;63.96;100213.61;1744012;82;21009;-72
2021/08/09 05:46:11;;;;;;;5.22;3.70;;;;;;;22.27;63.84;100213.51;1743900;82;21813;-73
2021/08/09 05:48:39;;;;;;;6.90;3.77;;;;;;;22.34;63.70;100217.06;1728283;81;21368;-72
2021/08/09 05:51:06;;;;;;;6.83;3.50;;;;;;;22.44;63.91;100224.75;1758104;80;21372;-72
2021/08/09 05:53:34;;;;;;;8.93;3.85;;;;;;;22.52;63.54;100223.22;1741198;80;21000;-73
2021/08/09 05:56:00;;;;;;;5.00;3.65;;;;;;;22.57;63.44;100216.70;1750248;80;20958;-73
2021/08/09 05:58:30;;;;;;;7.22;3.65;;;;;;;22.64;63.25;100219.41;1771080;80;21034;-73
2021/08/09 06:00:57;;;;;;;6.03;3.92;;;;;;;22.67;62.96;100223.86;1777093;80;20937;-75
2021/08/09 06:03:25;;;;;;;4.60;3.42;;;;;;;22.69;62.82;100221.82;1758523;80;20981;-75
2021/08/09 06:05:54;;;;;;;4.50;3.77;;;;;;;22.78;63.01;100218.42;1743755;82;20976;-74
2021/08/09 06:08:23;;;;;;;4.83;3.92;;;;;;;22.80;62.60;100212.30;1751281;80;21471;-74
2021/08/09 06:10:51;;;;;;;4.87;3.80;;;;;;;22.83;62.70;100219.45;1759725;80;21829;-74
2021/08/09 06:13:18;;;;;;;8.83;3.98;;;;;;;22.86;62.52;100210.15;1755398;81;20941;-75
2021/08/09 06:15:46;;;;;;;5.25;3.50;;;;;;;22.92;62.46;100208.51;1752021;80;21035;-74
2021/08/09 06:18:13;;;;;;;7.80;3.47;;;;;;;22.97;62.56;100209.56;1772441;80;20999;-74
2021/08/09 06:20:40;;;;;;;6.00;3.77;;;;;;;23.06;62.55;100208.29;1748946;80;20959;-74
2021/08/09 06:23:07;;;;;;;6.35;3.65;;;;;;;23.14;62.37;100209.95;1751213;80;21779;-74
2021/08/09 06:25:34;;;;;;;6.15;3.58;;;;;;;23.23;62.64;100209.23;1750923;80;21000;-74
2021/08/09 06:28:02;;;;;;;5.55;3.50;;;;;;;23.31;62.18;100210.37;1736179;80;21013;-74
2021/08/09 06:30:28;;;;;;;5.60;3.65;;;;;;;23.36;61.80;100209.23;1758913;80;20997;-75
2021/08/09 06:32:55;;;;;;;4.78;3.40;;;;;;;23.40;61.62;100213.16;1757560;80;20996;-74
2021/08/09 06:35:23;;;;;;;7.10;3.60;;;;;;;23.42;61.39;100206.52;1753775;80;21824;-74
2021/08/09 06:37:49;;;;;;;6.15;3.60;;;;;;;23.48;61.47;100210.77;1755043;81;20950;-76
2021/08/09 06:40:17;;;;;;;5.62;3.42;;;;;;;23.51;61.10;100207.13;1755369;81;20950;-75
2021/08/09 06:42:46;;;;;;;4.80;3.58;;;;;;;23.56;61.16;100204.64;1742785;80;21012;-75
2021/08/09 06:45:25;;;;;;;3.87;3.20;;;;;;;23.63;61.29;100202.77;1749238;81;20946;-74
2021/08/09 06:47:53;;;;;;;6.62;3.60;;;;;;;23.78;61.46;100205.75;1727010;80;22471;-74
2021/08/09 06:50:20;;;;;;;4.67;3.45;;;;;;;23.89;61.04;100199.17;1719460;80;21571;-74
2021/08/09 06:52:48;;;;;;;3.75;3.35;;;;;;;23.97;60.67;100195.42;1749622;81;20981;-75
2021/08/09 06:55:15;;;;;;;6.45;3.83;;;;;;;24.07;60.48;100200.36;1759395;80;21027;-76
2021/08/09 06:57:42;;;;;;;9.13;3.72;;;;;;;24.13;60.27;100199.52;1743712;82;21053;-75
2021/08/09 07:00:11;;;;;;;8.43;3.52;;;;;;;24.20;60.35;100198.94;1744778;82;22182;-75
2021/08/09 07:02:37;;;;;;;6.67;3.45;;;;;;;24.28;60.25;100206.27;1743654;82;20893;-75
2021/08/09 07:05:05;;;;;;;9.48;3.70;;;;;;;24.40;60.50;100203.74;1741564;80;20980;-75
2021/08/09 07:07:32;;;;;;;6.97;3.55;;;;;;;24.52;60.25;100204.73;1757800;80;21042;-75
2021/08/09 07:09:59;;;;;;;5.30;3.42;;;;;;;24.64;60.10;100204.86;1744716;82;21528;-74
2021/08/09 07:12:29;;;;;;;8.03;3.87;;;;;;;24.76;59.77;100202.28;1742513;82;20955;-75
2021/08/09 07:14:55;;;;;;;8.00;3.40;;;;;;;24.83;59.22;100199.84;1750912;80;21373;-75
2021/08/09 07:17:22;;;;;;;5.35;3.40;;;;;;;24.89;59.31;100200.83;1755249;80;21488;-73
2021/08/09 07:19:49;;;;;;;4.95;3.40;;;;;;;24.99;58.89;100203.03;1752895;80;21401;-74
2021/08/09 07:22:16;;;;;;;5.60;3.52;;;;;;;25.07;58.34;100203.63;1734061;82;21009;-73
2021/08/09 07:24:42;;;;;;;5.03;3.58;;;;;;;25.14;58.03;100199.52;1731830;82;22833;-73
2021/08/09 07:27:09;;;;;;;5.58;3.58;;;;;;;25.23;58.08;100196.02;1743619;82;20949;-73
2021/08/09 07:29:35;;;;;;;4.50;3.50;;;;;;;25.34;58.06;100200.70;1744163;82;20973;-73
2021/08/09 07:32:03;;;;;;;7.72;3.50;;;;;;;25.45;57.95;100197.25;1743588;82;20985;-75
2021/08/09 07:34:30;;;;;;;5.28;3.70;;;;;;;25.57;57.57;100195.98;1743607;82;20938;-72
2021/08/09 07:36:56;;;;;;;5.10;3.58;;;;;;;25.63;57.16;100192.39;1710239;82;21786;-74
2021/08/09 07:39:24;;;;;;;7.95;3.80;;;;;;;25.69;57.11;100186.92;1722713;83;21010;-72
2021/08/09 07:41:51;;;;;;;7.40;3.60;;;;;;;25.80;56.98;100188.60;1747888;82;21503;-73
2021/08/09 07:44:18;;;;;;;6.75;3.60;;;;;;;25.89;57.00;100189.95;1749723;82;20953;-71
2021/08/09 07:46:45;;;;;;;9.58;3.52;;;;;;;26.02;56.97;100197.90;1745227;81;20965;-71
2021/08/09 07:49:12;;;;;;;7.20;3.55;;;;;;;26.13;56.30;100208.48;1749583;80;22221;-71
2021/08/09 07:51:39;;;;;;;7.45;3.20;;;;;;;26.18;56.28;100194.58;1749684;82;21051;-71
2021/08/09 07:54:05;;;;;;;6.35;3.25;;;;;;;26.23;55.74;100202.00;1752780;81;21405;-72
2021/08/09 07:56:32;;;;;;;6.20;3.25;;;;;;;26.24;55.55;100197.70;1755351;81;20995;-73
2021/08/09 07:58:59;;;;;;;5.42;3.35;;;;;;;26.30;55.91;100200.04;1753417;81;21392;-72
2021/08/09 08:01:25;;;;;;;9.08;3.52;;;;;;;26.35;54.90;100202.08;1749693;82;22605;-72
2021/08/09 08:03:52;;;;;;;10.00;3.58;;;;;;;26.33;55.27;100200.10;1737893;82;21466;-73
2021/08/09 08:06:18;;;;;;;6.22;3.00;;;;;;;26.38;54.76;100198.94;1717206;82;20977;-74
2021/08/09 08:08:46;;;;;;;7.08;3.10;;;;;;;26.39;54.34;100208.17;1749673;82;21424;-75
2021/08/09 08:11:13;;;;;;;6.60;3.30;;;;;;;26.42;54.63;100202.29;1749756;82;21443;-77
2021/08/09 08:13:41;;;;;;;5.30;2.80;;;;;;;26.50;54.97;100210.09;1747296;82;21214;-75
2021/08/09 08:16:10;;;;;;;6.65;3.20;;;;;;;26.65;55.00;100215.64;1711848;83;20934;-74
2021/08/09 08:18:40;;;;;;;4.53;3.40;;;;;;;26.77;54.38;100211.90;1720710;82;21530;-74
2021/08/09 08:21:07;;;;;;;6.00;3.35;;;;;;;26.86;53.43;100207.50;1745001;82;21227;-73
2021/08/09 08:23:34;;;;;;;3.95;3.30;;;;;;;26.92;53.78;100205.20;1749806;82;21044;-73
2021/08/09 08:26:01;;;;;;;6.00;3.50;;;;;;;27.01;53.54;100198.38;1720572;82;21826;-72
2021/08/09 08:28:27;;;;;;;5.05;3.22;;;;;;;27.10;53.58;100199.72;1720312;82;20956;-73
2021/08/09 08:30:54;;;;;;;7.05;3.67;;;;;;;27.20;53.90;100195.89;1749616;82;21035;-73
2021/08/09 08:33:21;;;;;;;11.43;3.37;;;;;;;27.34;53.54;100191.91;1749691;82;21032;-73
2021/08/09 08:35:48;;;;;;;6.70;3.30;;;;;;;27.48;53.99;100188.94;1748590;82;20949;-73
2021/08/09 08:38:15;;;;;;;4.00;3.17;;;;;;;27.63;53.90;100193.36;1737533;82;21901;-72
2021/08/09 08:40:48;;;;;;;9.98;3.55;;;;;;;27.78;52.34;100194.23;1737584;82;21023;-74
2021/08/09 08:43:25;;;;;;;7.80;3.40;;;;;;;27.76;52.84;100194.48;1743118;82;20996;-71
2021/08/09 08:46:01;;;;;;;6.12;3.70;;;;;;;27.77;52.08;100193.41;1720808;82;21467;-72
2021/08/09 08:48:29;;;;;;;9.73;3.65;;;;;;;27.82;51.95;100198.96;1752834;80;20953;-71
2021/08/09 08:50:57;;;;;;;16.40;4.12;;;;;;;27.84;52.17;100194.11;1755302;81;21830;-72
2021/08/09 08:53:34;;;;;;;8.43;3.92;;;;;;;27.87;51.81;100194.16;1749942;81;21038;-75
2021/08/09 08:56:06;;;;;;;10.85;4.40;;;;;;;27.91;52.13;100186.67;1750239;81;20984;-71
2021/08/09 08:58:32;;;;;;;7.22;4.03;;;;;;;28.08;52.28;100196.75;1728836;81;21012;-73
2021/08/09 09:00:59;;;;;;;6.47;3.90;;;;;;;28.19;52.09;100187.77;1755261;81;21553;-74
2021/08/09 09:03:26;;;;;;;5.97;3.85;;;;;;;28.30;51.81;100192.89;1755420;81;21819;-73
2021/08/09 09:06:11;;;;;;;4.50;3.50;;;;;;;28.35;51.64;100193.80;1755427;80;21455;-74
2021/08/09 09:08:49;;;;;;;10.90;4.20;;;;;;;28.42;51.29;100203.98;1726307;80;20956;-74
2021/08/09 09:11:30;;;;;;;8.28;4.10;;;;;;;28.44;50.67;100193.70;1737344;81;20994;-74
2021/08/09 09:14:03;;;;;;;6.42;4.20;;;;;;;28.48;50.33;100194.88;1762380;80;20937;-74
2021/08/09 09:16:48;;;;;;;;;;;;;;;28.47;50.26;100188.30;1727857;82;21786;-73
2021/08/09 09:19:36;;;;;;;6.90;4.20;;;;;;;28.46;50.58;100188.83;1730516;80;20982;-74
2021/08/09 09:22:06;;;;;;;6.03;3.87;;;;;;;28.57;51.13;100187.66;1734426;80;21051;-73
2021/08/09 09:24:35;;;;;;;6.22;4.12;;;;;;;28.71;50.71;100180.86;1764953;80;21000;-74
2021/08/09 09:27:05;;;;;;;6.80;3.92;;;;;;;28.88;51.32;100178.16;1778553;80;21085;-74
2021/08/09 09:29:38;;;;;;;6.42;4.00;;;;;;;29.06;50.46;100181.48;1769890;80;21818;-74
2021/08/09 09:32:19;;;;;;;7.12;4.65;;;;;;;29.17;49.28;100170.23;1785035;80;20993;-72
2021/08/09 09:34:53;;;;;;;4.42;3.95;;;;;;;29.24;49.93;100176.33;1785150;80;21135;-73
2021/08/09 09:37:31;;;;;;;8.88;5.37;;;;;;;29.38;49.10;100178.69;1780981;80;21408;-73
2021/08/09 09:40:11;;;;;;;5.28;4.60;;;;;;;29.40;49.46;100171.09;1753953;81;21023;-74
2021/08/09 09:42:40;;;;;;;8.75;5.12;;;;;;;29.43;48.54;100176.02;1759210;80;21844;-74
2021/08/09 09:45:28;;;;;;;8.10;5.05;;;;;;;29.34;48.45;100172.94;1759541;80;21032;-73
2021/08/09 09:48:09;;;;;;;7.17;5.10;;;;;;;29.37;48.38;100180.59;1739382;81;21020;-73
2021/08/09 09:50:42;;;;;;;5.97;4.87;;;;;;;29.42;48.08;100179.28;1748413;80;21459;-73
2021/08/09 09:53:22;;;;;;;5.83;5.00;;;;;;;29.57;48.28;100186.34;1770144;80;21035;-74
2021/08/09 09:55:53;;;;;;;7.72;5.33;;;;;;;29.66;47.67;100185.91;1718882;83;21035;-73
2021/08/09 09:58:19;;;;;;;8.93;5.03;;;;;;;29.76;47.35;100176.52;1756012;80;21527;-74
2021/08/09 10:00:46;;;;;;;5.42;4.60;;;;;;;29.85;47.83;100180.44;1734546;82;21490;-74
2021/08/09 10:03:12;;;;;;;13.88;4.65;;;;;;;30.02;48.13;100176.30;1745235;80;21456;-75
2021/08/09 10:05:41;;;;;;;9.38;5.15;;;;;;;30.27;47.95;100175.77;1743761;82;21025;-73
2021/08/09 10:08:15;;;;;;;10.25;5.20;;;;;;;30.46;46.90;100173.80;1748828;82;21840;-74
2021/08/09 10:10:48;;;;;;;12.15;4.60;;;;;;;30.58;46.97;100174.17;1768567;80;21028;-76
2021/08/09 10:13:19;;;;;;;8.28;4.12;;;;;;;30.70;45.74;100164.80;1772911;80;21013;-75
2021/08/09 10:15:55;;;;;;;9.50;4.40;;;;;;;30.70;45.97;100175.70;1779387;80;21008;-75
2021/08/09 10:18:29;;;;;;;7.12;4.42;;;;;;;30.69;45.97;100182.23;1765253;80;21039;-72
2021/08/09 10:20:56;;;;;;;13.50;4.95;;;;;;;30.82;45.31;100182.88;1768923;80;22513;-73
2021/08/09 10:23:44;;;;;;;6.35;4.28;;;;;;;30.83;44.25;100189.44;1740441;81;21516;-74
2021/08/09 10:26:22;;;;;;;7.87;4.17;;;;;;;30.83;44.25;100189.44;1689164;83;21020;-72
2021/08/09 10:28:57;;;;;;;4.75;4.15;;;;;;;30.72;45.15;100189.89;1716831;83;20969;-76
2021/08/09 10:31:26;;;;;;;5.30;3.95;;;;;;;30.70;45.04;100198.05;1745345;80;21055;-75
2021/08/09 10:33:53;;;;;;;7.72;3.90;;;;;;;30.76;44.28;100201.09;1734901;82;21842;-74
2021/08/09 10:36:21;;;;;;;6.40;3.40;;;;;;;30.76;45.31;100203.81;1744023;80;20953;-73
2021/08/09 10:38:50;;;;;;;5.70;3.95;;;;;;;30.86;45.49;100198.45;1743711;82;20950;-74
2021/08/09 10:41:29;;;;;;;6.20;3.95;;;;;;;31.10;45.22;100203.56;1743936;82;21405;-74
2021/08/09 10:44:11;;;;;;;7.83;3.92;;;;;;;31.29;43.12;100221.20;1776964;80;21031;-75
2021/08/09 10:46:44;;;;;;;10.30;4.40;;;;;;;31.30;43.97;100214.66;1778695;80;21814;-74
2021/08/09 10:49:44;;;;;;;9.68;4.17;;;;;;;31.38;43.04;100207.89;1730221;81;21075;-75
2021/08/09 10:52:11;;;;;;;8.15;4.72;;;;;;;31.34;43.29;100215.77;1756778;81;20982;-76
2021/08/09 10:54:38;;;;;;;9.05;3.75;;;;;;;31.40;44.83;100204.35;1756341;81;21098;-73
2021/08/09 10:57:04;;;;;;;9.53;4.10;;;;;;;31.67;45.08;100200.97;1758288;81;21028;-72
2021/08/09 10:59:48;;;;;;;7.97;4.20;;;;;;;31.96;43.49;100204.68;1750910;80;21103;-73
2021/08/09 11:02:18;;;;;;;8.10;3.83;;;;;;;32.14;42.82;100202.84;1751736;81;21459;-71
2021/08/09 11:05:05;;;;;;;10.08;4.35;;;;;;;32.23;42.05;100199.02;1762807;80;21059;-70
2021/08/09 11:07:32;;;;;;;4.42;3.42;;;;;;;32.27;42.77;100200.13;1752298;81;21508;-73
2021/08/09 11:10:01;;;;;;;24.92;5.65;;;;;;;32.39;41.53;100199.37;1748116;81;20948;-70
2021/08/09 11:12:29;;;;;;;11.18;4.12;;;;;;;32.38;41.56;100201.83;1751054;81;20979;-71
2021/08/09 11:15:07;;;;;;;8.90;3.47;;;;;;;32.43;41.38;100194.47;1748655;81;20933;-71
2021/08/09 11:17:45;;;;;;;28.87;5.92;;;;;;;32.42;41.02;100202.38;1752311;81;21482;-71
2021/08/09 11:20:21;;;;;;;4.95;3.75;;;;;;;32.27;41.25;100202.32;1728062;82;20992;-74
2021/08/09 11:22:59;;;;;;;7.35;4.03;;;;;;;32.32;40.50;100203.72;1757498;81;21486;-76
2021/08/09 11:25:44;;;;;;;8.23;3.77;;;;;;;32.23;40.80;100194.91;1733746;81;22269;-74
2021/08/09 11:28:19;;;;;;;6.92;3.50;;;;;;;32.22;41.46;100190.54;1737168;81;21036;-73
2021/08/09 11:30:55;;;;;;;6.62;3.55;;;;;;;32.41;41.04;100197.18;1750245;81;21005;-75
2021/08/09 11:33:41;;;;;;;6.70;3.25;;;;;;;32.49;40.31;100189.00;1755811;81;21054;-77
2021/08/09 11:36:13;;;;;;;7.83;3.60;;;;;;;32.45;41.04;100183.27;1758311;81;21002;-73
2021/08/09 11:38:54;;;;;;;8.75;3.40;;;;;;;32.49;40.22;100186.27;1721717;83;22489;-76